Time;durP1;ratioP1;P1;durP2;ratioP2;P2;SDS_P1;SDS_P2;PMS_P1;PMS_P2;Temp;Humidity;BMP_temperature;BMP_pressure;BME280_temperature;BME280_humidity;BME280_pressure;Samples;Min_cycle;Max_cycle;Signal;HPM_P1;HPM_P2
2022/06/11 00:01:38;;;;;;;;;7.00;4.33;;;;;21.89;57.15;101870.03;5006272;28;45552;-85
2022/06/11 00:04:10;;;;;;;;;6.00;5.00;;;;;21.89;57.30;101874.56;5009341;28;45470;-84
2022/06/11 00:06:41;;;;;;;;;1.33;1.33;;;;;21.87;57.57;101874.69;5006866;28;45552;-84
2022/06/11 00:09:08;;;;;;;;;3.00;3.00;;;;;21.85;57.70;101871.22;5009211;28;46174;-84
2022/06/11 00:11:34;;;;;;;;;5.00;5.00;;;;;21.85;57.18;101873.09;5008808;28;45422;-84
2022/06/11 00:13:59;;;;;;;;;2.33;2.33;;;;;21.74;57.28;101863.00;5008751;28;45528;-83
2022/06/11 00:16:25;;;;;;;;;4.00;4.00;;;;;21.81;57.65;101877.84;5010558;28;45611;-84
2022/06/11 00:18:56;;;;;;;;;7.00;3.33;;;;;21.74;57.91;101873.00;5008468;28;45865;-83
2022/06/11 00:21:24;;;;;;;;;4.33;4.33;;;;;21.71;57.99;101860.53;5007201;28;45468;-84
2022/06/11 00:23:50;;;;;;;;;3.33;3.33;;;;;21.74;57.76;101873.00;5009737;28;45469;-84
2022/06/11 00:26:15;;;;;;;;;4.00;4.00;;;;;21.66;58.21;101862.72;5017953;28;45629;-86
2022/06/11 00:28:41;;;;;;;;;3.00;3.00;;;;;21.69;57.98;101871.47;5035590;28;46184;-85
2022/06/11 00:31:07;;;;;;;;;3.67;3.33;;;;;21.51;57.44;101851.09;5032818;28;45402;-85
2022/06/11 00:33:35;;;;;;;;;3.33;3.33;;;;;21.56;58.09;101858.91;5031471;28;45713;-85
2022/06/11 00:36:01;;;;;;;;;4.67;3.00;;;;;21.61;57.92;101879.31;5032340;28;45649;-86
2022/06/11 00:38:26;;;;;;;;;3.00;3.00;;;;;21.41;58.18;101850.91;5035851;28;50554;-85
2022/06/11 00:40:53;;;;;;;;;2.33;2.33;;;;;21.47;58.42;101858.63;5032031;28;45684;-85
2022/06/11 00:43:22;;;;;;;;;3.00;3.00;;;;;21.56;58.50;101872.47;5033627;28;45836;-86
2022/06/11 00:46:26;;;;;;;;;4.00;3.00;;;;;21.50;58.57;101869.22;5033346;28;45373;-85
2022/06/11 00:48:51;;;;;;;;;3.33;3.33;;;;;21.50;58.06;101874.66;5031662;28;46475;-86
2022/06/11 00:51:23;;;;;;;;;5.00;3.00;;;;;21.27;58.79;101834.72;5031207;28;45388;-86
2022/06/11 00:53:54;;;;;;;;;2.67;2.67;;;;;21.42;58.19;101866.22;5033571;28;45501;-86
2022/06/11 00:56:42;;;;;;;;;5.00;4.00;;;;;21.42;58.75;101871.63;5031710;28;45516;-85
2022/06/11 00:59:13;;;;;;;;;5.00;3.67;;;;;21.40;58.68;101868.16;5031529;28;46179;-85
2022/06/11 01:01:39;;;;;;;;;3.00;3.00;;;;;21.36;58.72;101877.47;5035041;28;45436;-86
2022/06/11 01:04:34;;;;;;;;;5.00;3.00;;;;;21.36;58.95;101869.31;5031996;28;45743;-85
2022/06/11 01:07:13;;;;;;;;;1.00;1.00;;;;;21.18;58.87;101838.09;5032954;28;45705;-86
2022/06/11 01:09:45;;;;;;;;;2.00;2.00;;;;;21.26;59.15;101857.41;5030587;28;47339;-86
2022/06/11 01:12:33;;;;;;;;;3.00;3.00;;;;;21.30;58.47;101867.03;5029650;28;45797;-86
2022/06/11 01:15:09;;;;;;;;;3.67;2.67;;;;;21.31;59.13;101863.38;5025859;28;45545;-85
2022/06/11 01:17:50;;;;;;;;;4.00;2.67;;;;;21.25;59.40;101855.66;5025836;28;45471;-86
2022/06/11 01:20:41;;;;;;;;;3.00;3.00;;;;;21.26;59.37;101858.28;5035516;28;45475;-85
2022/06/11 01:23:15;;;;;;;;;3.67;3.00;;;;;21.25;59.36;101864.66;5034621;28;45412;-85
2022/06/11 01:26:19;;;;;;;;;2.67;2.67;;;;;21.09;59.09;101842.31;5030910;28;45729;-85
2022/06/11 01:29:18;;;;;;;;;2.67;2.67;;;;;21.22;59.07;101861.31;5037837;28;45403;-85
2022/06/11 01:31:53;;;;;;;;;5.00;3.00;;;;;21.20;59.42;101858.69;5037061;28;47082;-85
2022/06/11 01:34:21;;;;;;;;;4.33;3.00;;;;;21.17;59.41;101861.63;5034726;28;45269;-86
2022/06/11 01:36:52;;;;;;;;;2.00;2.00;;;;;21.16;59.99;101862.59;5029965;28;45280;-85
2022/06/11 01:39:53;;;;;;;;;3.00;3.00;;;;;20.93;60.02;101831.72;5030883;28;45309;-86
2022/06/11 01:42:26;;;;;;;;;4.00;2.33;;;;;20.93;59.26;101839.84;5030258;28;46388;-85
2022/06/11 01:45:24;;;;;;;;;2.33;2.33;;;;;20.99;59.41;101847.53;5032157;28;45896;-85
2022/06/11 01:47:51;;;;;;;;;2.67;2.67;;;;;20.89;59.78;101832.03;5024772;28;45389;-85
2022/06/11 01:50:22;;;;;;;;;3.00;3.00;;;;;20.95;59.64;101842.41;5034505;28;45518;-86
2022/06/11 01:53:02;;;;;;;;;4.33;3.00;;;;;21.08;59.98;101865.84;5030105;28;46173;-85
2022/06/11 01:55:46;;;;;;;;;3.00;3.00;;;;;21.06;59.60;101867.78;5032346;28;45403;-85
2022/06/11 01:58:33;;;;;;;;;2.67;2.67;;;;;20.89;59.58;101853.72;5030781;28;45459;-85
2022/06/11 02:01:11;;;;;;;;;5.00;3.33;;;;;21.03;59.78;101875.28;5032228;28;45616;-85
2022/06/11 02:03:48;;;;;;;;;2.67;2.67;;;;;21.01;60.05;101871.81;5025993;28;47721;-86
2022/06/11 02:06:28;;;;;;;;;3.00;3.00;;;;;20.98;59.83;101882.88;5030269;28;45545;-86
2022/06/11 02:09:16;;;;;;;;;2.00;2.00;;;;;20.96;59.92;101874.84;5028961;28;45316;-86
2022/06/11 02:11:47;;;;;;;;;3.67;2.00;;;;;20.96;60.06;101876.69;5034369;28;45834;-85
2022/06/11 02:14:25;;;;;;;;;3.67;3.67;;;;;20.94;60.59;101878.63;5033174;28;46400;-86
2022/06/11 02:16:55;;;;;;;;;2.67;2.67;;;;;20.71;60.96;101850.41;5028622;28;45399;-85
2022/06/11 02:19:36;;;;;;;;;2.33;2.33;;;;;20.63;60.36;101835.56;5032581;28;45307;-86
2022/06/11 02:22:16;;;;;;;;;4.00;4.00;;;;;20.72;60.34;101844.91;5034618;28;45652;-85
2022/06/11 02:24:49;;;;;;;;;4.00;4.00;;;;;20.89;60.81;101878.97;5030478;28;46018;-85
2022/06/11 02:27:18;;;;;;;;;3.67;3.00;;;;;20.82;60.51;101864.09;5029668;28;45696;-86
2022/06/11 02:29:46;;;;;;;;;6.33;2.00;;;;;20.85;60.33;101880.13;5032316;28;45352;-85
2022/06/11 02:32:16;;;;;;;;;5.67;4.00;;;;;20.78;61.01;101868.00;5033275;28;45346;-85
2022/06/11 02:34:50;;;;;;;;;4.67;4.67;;;;;20.52;60.50;101829.13;5029596;28;46532;-86
2022/06/11 02:37:24;;;;;;;;;4.33;3.33;;;;;20.77;60.71;101875.25;5029777;28;45447;-85
2022/06/11 02:39:53;;;;;;;;;5.00;3.67;;;;;20.68;60.92;101872.31;5027653;28;45540;-85
2022/06/11 02:42:21;;;;;;;;;3.00;3.00;;;;;20.70;61.33;101875.75;5029993;28;45473;-86
2022/06/11 02:44:47;;;;;;;;;2.67;2.67;;;;;20.74;60.97;101888.13;5033696;28;47226;-85
2022/06/11 02:47:14;;;;;;;;;3.67;3.67;;;;;20.73;60.87;101887.28;5034728;28;45692;-85
2022/06/11 02:49:39;;;;;;;;;3.33;3.33;;;;;20.71;61.04;101886.50;5029754;28;45533;-85
2022/06/11 02:52:10;;;;;;;;;3.00;3.00;;;;;20.55;61.50;101861.41;5031058;28;45525;-86
2022/06/11 02:54:36;;;;;;;;;3.00;3.00;;;;;20.68;61.54;101892.13;5029407;28;46098;-85
2022/06/11 02:57:04;;;;;;;;;5.33;4.00;;;;;20.62;61.60;101887.13;5030837;28;46005;-85
2022/06/11 02:59:29;;;;;;;;;5.00;4.00;;;;;20.56;61.31;101874.88;5023619;28;45752;-86
2022/06/11 03:01:56;;;;;;;;;4.33;4.33;;;;;20.59;61.41;101887.34;5030677;28;45697;-86
2022/06/11 03:04:24;;;;;;;;;3.33;3.33;;;;;20.52;61.32;101883.28;5030183;28;46148;-84
2022/06/11 03:06:50;;;;;;;;;4.00;4.00;;;;;20.60;61.74;101903.50;5030568;28;46573;-85
2022/06/11 03:09:21;;;;;;;;;2.00;2.00;;;;;20.58;61.84;101908.16;5029347;28;45598;-85
2022/06/11 03:11:47;;;;;;;;;4.67;4.67;;;;;20.49;61.88;101900.63;5031922;28;45399;-85
2022/06/11 03:14:14;;;;;;;;;4.00;4.00;;;;;20.56;61.51;101914.66;5030337;28;45445;-86
2022/06/11 03:16:40;;;;;;;;;3.33;3.33;;;;;20.55;61.87;101904.75;5029237;28;45510;-86
2022/06/11 03:19:07;;;;;;;;;1.67;1.67;;;;;20.43;61.93;101893.75;5030405;28;45407;-86
2022/06/11 03:21:33;;;;;;;;;4.33;3.67;;;;;20.54;62.09;101911.13;5029083;28;45674;-86
2022/06/11 03:23:58;;;;;;;;;4.33;4.00;;;;;20.53;62.20;101907.53;5029700;28;47617;-85
2022/06/11 03:26:24;;;;;;;;;5.00;4.00;;;;;20.35;62.03;101881.72;5033872;28;45423;-86
2022/06/11 03:28:49;;;;;;;;;6.00;5.33;;;;;20.49;62.45;101907.88;5029116;28;45551;-85
2022/06/11 03:31:15;;;;;;;;;6.67;4.00;;;;;20.37;62.16;101893.28;5030375;28;45590;-85
2022/06/11 03:33:41;;;;;;;;;4.33;4.33;;;;;20.52;62.41;101907.66;5029759;28;46122;-86
2022/06/11 03:36:10;;;;;;;;;3.00;3.00;;;;;20.51;62.06;101914.94;5029750;28;45538;-85
2022/06/11 03:38:37;;;;;;;;;4.00;4.00;;;;;20.52;62.18;101918.50;5032931;28;45454;-85
2022/06/11 03:41:04;;;;;;;;;4.00;4.00;;;;;20.51;61.91;101920.34;5031248;28;45635;-86
2022/06/11 03:43:29;;;;;;;;;5.33;5.33;;;;;20.32;62.06;101890.91;5028774;28;46192;-86
2022/06/11 03:45:55;;;;;;;;;5.33;4.00;;;;;20.50;61.90;101925.84;5029559;28;45835;-86
2022/06/11 03:48:22;;;;;;;;;4.00;4.00;;;;;20.50;61.92;101929.41;5028611;28;45416;-86
2022/06/11 03:50:47;;;;;;;;;4.00;2.67;;;;;20.37;61.88;101913.13;5031247;28;45344;-85
2022/06/11 03:53:13;;;;;;;;;7.33;5.33;;;;;20.49;62.12;101938.53;5031993;28;46169;-86
2022/06/11 03:55:41;;;;;;;;;3.00;2.33;;;;;20.49;62.05;101941.25;5029487;28;45773;-86
2022/06/11 03:58:08;;;;;;;;;9.00;4.00;;;;;20.44;62.80;101937.97;5031277;28;46030;-85
2022/06/11 04:03:19;;;;;;;;;4.00;3.00;;;;;20.49;62.90;101951.22;5033383;28;45683;-86
2022/06/11 04:05:49;;;;;;;;;4.00;4.00;;;;;20.42;63.00;101942.63;5035747;28;45515;-86
2022/06/11 04:08:16;;;;;;;;;5.67;3.33;;;;;20.49;62.74;101952.06;5036360;28;45455;-86
2022/06/11 04:10:43;;;;;;;;;4.67;4.00;;;;;20.49;62.88;101959.34;5032134;28;45449;-85
2022/06/11 04:13:09;;;;;;;;;4.00;4.00;;;;;20.49;62.67;101967.47;5031084;28;46011;-85
2022/06/11 04:15:36;;;;;;;;;5.33;5.33;;;;;20.48;62.58;101968.41;5031626;28;45530;-86
2022/06/11 04:18:03;;;;;;;;;3.00;3.00;;;;;20.44;62.75;101965.06;5032772;28;45510;-85
2022/06/11 04:20:29;;;;;;;;;4.00;4.00;;;;;20.47;62.79;101974.81;5036607;28;45459;-85
2022/06/11 04:22:54;;;;;;;;;5.00;5.00;;;;;20.48;63.16;101982.81;5032044;28;46227;-85
2022/06/11 04:25:21;;;;;;;;;5.67;4.33;;;;;20.41;63.05;101971.50;5032663;28;45510;-85
2022/06/11 04:27:53;;;;;;;;;4.00;4.00;;;;;20.36;62.86;101968.25;5031301;28;45593;-85
2022/06/11 04:30:20;;;;;;;;;4.67;4.00;;;;;20.48;63.20;101985.53;5031230;28;45510;-85
2022/06/11 04:32:45;;;;;;;;;5.00;5.00;;;;;20.30;63.48;101954.22;5033935;28;47129;-85
2022/06/11 04:35:11;;;;;;;;;5.33;3.67;;;;;20.43;63.32;101982.25;5034119;28;45549;-86
2022/06/11 04:37:36;;;;;;;;;6.00;4.33;;;;;20.33;62.88;101964.88;5031900;28;45539;-86
2022/06/11 04:40:03;;;;;;;;;2.67;2.67;;;;;20.48;63.09;101998.22;5032930;28;45526;-86
2022/06/11 04:42:29;;;;;;;;;5.00;4.00;;;;;20.48;63.08;101993.66;5040230;28;46262;-85
2022/06/11 04:44:55;;;;;;;;;3.00;2.00;;;;;20.38;63.53;101984.41;5032078;28;45584;-86
2022/06/11 04:47:25;;;;;;;;;4.00;4.00;;;;;20.32;63.85;101976.66;5027836;28;45400;-85
2022/06/11 04:49:52;;;;;;;;;3.33;3.33;;;;;20.47;63.42;101999.19;5021792;28;45424;-87
2022/06/11 04:52:17;;;;;;;;;4.33;4.33;;;;;20.42;63.90;101994.94;5031274;28;46388;-84
2022/06/11 04:54:43;;;;;;;;;5.00;5.00;;;;;20.42;63.85;101988.66;5030284;28;45425;-85
2022/06/11 04:57:09;;;;;;;;;5.00;4.67;;;;;20.35;63.42;101982.78;5030428;28;49955;-84
2022/06/11 04:59:35;;;;;;;;;4.67;3.00;;;;;20.45;63.85;101996.56;5036331;28;45410;-85
2022/06/11 05:02:01;;;;;;;;;9.00;4.00;;;;;20.35;63.94;101980.06;5035966;28;46351;-85
2022/06/11 05:04:27;;;;;;;;;5.67;5.67;;;;;20.48;63.81;102000.91;5029082;28;45348;-85
2022/06/11 05:06:53;;;;;;;;;7.67;4.33;;;;;20.37;64.02;101985.34;5036716;28;48361;-85
2022/06/11 05:09:21;;;;;;;;;5.00;3.67;;;;;20.48;63.85;102001.78;5030683;28;45387;-85
2022/06/11 05:11:47;;;;;;;;;6.00;4.00;;;;;20.45;64.03;102002.84;5034731;28;47533;-83
2022/06/11 05:14:13;;;;;;;;;4.00;4.00;;;;;20.43;63.69;101993.94;5035593;28;45752;-87
2022/06/11 05:16:41;;;;;;;;;4.00;4.00;;;;;20.50;63.65;102005.25;5030660;28;45435;-87
2022/06/11 05:19:08;;;;;;;;;4.33;4.33;;;;;20.47;64.17;101994.63;5035904;28;45475;-87
2022/06/11 05:21:34;;;;;;;;;108.50;88.25;;;;;20.32;63.57;101965.84;5029990;28;46241;-83
2022/06/11 05:24:00;;;;;;;;;2.00;0.67;;;;;20.56;63.64;102001.34;5035816;28;45478;-84
2022/06/11 05:26:37;;;;;;;;;13.67;11.33;;;;;20.54;63.99;102005.94;5035461;28;45841;-84
2022/06/11 05:29:04;;;;;;;;;5.00;5.00;;;;;20.60;63.67;102010.97;5032125;28;45646;-85
2022/06/11 05:31:30;;;;;;;;;4.67;4.67;;;;;20.43;64.19;101975.00;5035122;28;46338;-84
2022/06/11 05:33:55;;;;;;;;;7.00;4.00;;;;;20.58;63.78;101996.66;5031343;28;45417;-84
2022/06/11 05:36:21;;;;;;;;;5.00;5.00;;;;;20.57;64.04;101986.81;5035546;28;45541;-84
2022/06/11 05:38:47;;;;;;;;;8.00;6.00;;;;;20.64;63.20;101997.13;5032686;28;45692;-84
2022/06/11 05:41:12;;;;;;;;;6.00;6.00;;;;;20.67;63.22;101993.34;5033041;28;46306;-84
2022/06/11 05:43:38;;;;;;;;;6.67;4.00;;;;;20.37;63.35;101945.63;5034977;28;45435;-84
2022/06/11 05:46:14;;;;;;;;;4.67;4.67;;;;;20.65;64.03;101995.31;5031038;28;45441;-85
2022/06/11 05:48:54;;;;;;;;;4.33;4.00;;;;;20.61;63.87;101975.66;5035768;28;45344;-84
2022/06/11 05:51:27;;;;;;;;;6.00;4.67;;;;;20.74;63.44;101996.50;5029504;28;45449;-85
2022/06/11 05:53:55;;;;;;;;;7.00;6.00;;;;;20.83;62.99;102002.19;5035116;28;45893;-85
2022/06/11 05:56:20;;;;;;;;;5.00;5.00;;;;;20.85;62.60;101997.53;5035128;28;45406;-85
2022/06/11 05:58:55;;;;;;;;;5.00;4.33;;;;;20.96;62.84;102004.09;5029931;28;45610;-86
2022/06/11 06:01:24;;;;;;;;;4.33;4.33;;;;;20.84;62.19;101978.69;5034116;28;46537;-84
2022/06/11 06:03:50;;;;;;;;;5.67;5.67;;;;;21.05;61.91;102001.63;5031043;28;45419;-84
2022/06/11 06:06:16;;;;;;;;;4.67;3.33;;;;;21.14;61.78;102004.66;5033994;28;45566;-83
2022/06/11 06:08:41;;;;;;;;;4.00;3.33;;;;;21.00;61.09;101981.19;5033577;28;45559;-83
2022/06/11 06:11:07;;;;;;;;;3.00;3.00;;;;;21.23;60.50;102013.03;5031317;28;46054;-84
2022/06/11 06:13:48;;;;;;;;;4.33;2.33;;;;;21.12;60.48;101985.81;5034531;28;45871;-83
2022/06/11 06:16:19;;;;;;;;;2.00;2.00;;;;;21.26;60.36;102003.84;5030013;28;45776;-86
2022/06/11 06:18:45;;;;;;;;;2.67;2.33;;;;;21.24;60.48;101992.22;5035265;28;45426;-88
2022/06/11 06:21:12;;;;;;;;;2.00;2.00;;;;;21.41;60.54;102016.38;5031132;28;46201;-88
2022/06/11 06:23:37;;;;;;;;;3.33;3.33;;;;;21.46;60.03;102010.63;5033082;28;45503;-88
2022/06/11 06:26:03;;;;;;;;;5.00;4.00;;;;;21.47;59.88;102007.81;5032262;28;45459;-85
2022/06/11 06:28:29;;;;;;;;;4.00;4.00;;;;;21.43;59.87;101992.72;5033529;28;45412;-88
2022/06/11 06:30:54;;;;;;;;;2.00;2.00;;;;;21.64;59.89;102009.34;5030010;28;45480;-83
2022/06/11 06:33:20;;;;;;;;;15.00;15.00;;;;;21.70;59.43;102019.78;5030135;28;45639;-83
2022/06/11 06:35:45;;;;;;;;;5.67;5.33;;;;;21.71;59.41;102009.78;5030676;28;45447;-83
2022/06/11 06:38:11;;;;;;;;;5.67;5.00;;;;;21.81;59.51;102012.69;5031223;28;45666;-84
2022/06/11 06:40:37;;;;;;;;;3.67;3.00;;;;;21.88;58.45;102019.44;5032100;28;46548;-85
2022/06/11 06:43:03;;;;;;;;;4.67;3.33;;;;;21.92;59.29;102015.53;5030649;28;45507;-81
2022/06/11 06:45:28;;;;;;;;;4.00;2.33;;;;;21.86;58.07;101992.38;5029938;28;47097;-82
2022/06/11 06:47:54;;;;;;;;;3.33;3.33;;;;;21.89;57.87;101992.19;5033151;28;45599;-81
2022/06/11 06:50:20;;;;;;;;;5.00;1.00;;;;;22.08;57.28;102007.16;5031337;28;47220;-81
2022/06/11 06:52:45;;;;;;;;;3.00;2.00;;;;;21.99;57.09;101973.38;5032972;28;45506;-81
2022/06/11 06:55:11;;;;;;;;;4.00;4.00;;;;;22.22;56.87;102007.03;5030115;28;45684;-83
2022/06/11 06:57:36;;;;;;;;;3.00;3.00;;;;;22.36;57.01;102013.28;5030250;28;45487;-87
2022/06/11 07:00:05;;;;;;;;;1.00;1.00;;;;;22.51;56.42;102028.47;5030117;28;45488;-87
2022/06/11 07:02:30;;;;;;;;;1.33;0.00;;;;;22.57;55.08;102027.16;5029552;28;45428;-84
2022/06/11 07:04:56;;;;;;;;;3.33;1.00;;;;;22.51;54.63;102010.31;5033223;28;45697;-84
2022/06/11 07:07:21;;;;;;;;;1.00;1.00;;;;;22.63;54.80;102029.41;5031370;28;45491;-83
2022/06/11 07:09:53;;;;;;;;;1.00;1.00;;;;;22.56;54.40;102012.69;5029825;28;46066;-82
2022/06/11 07:12:19;;;;;;;;;1.67;1.67;;;;;22.63;54.12;102011.25;5026698;28;45356;-82
2022/06/11 07:14:44;;;;;;;;;2.33;1.33;;;;;22.71;53.37;102019.72;5028132;28;45517;-84
2022/06/11 07:17:10;;;;;;;;;1.67;1.67;;;;;22.74;53.51;102026.78;5031186;28;47566;-84
2022/06/11 07:19:41;;;;;;;;;1.67;1.67;;;;;22.79;53.20;102031.88;5031414;28;45483;-84
2022/06/11 07:22:16;;;;;;;;;1.67;1.67;;;;;22.82;53.45;102029.78;5029892;28;45468;-84
2022/06/11 07:24:42;;;;;;;;;2.00;1.00;;;;;22.77;52.80;102002.94;5029043;28;45488;-85
2022/06/11 07:27:13;;;;;;;;;1.00;1.00;;;;;23.03;52.47;102026.47;5028866;28;45513;-86
2022/06/11 07:29:44;;;;;;;;;2.00;2.00;;;;;23.04;52.17;102025.47;5019558;28;47238;-86
2022/06/11 07:32:15;;;;;;;;;0.75;0.75;;;;;23.01;51.91;102015.69;5032488;28;45378;-83
2022/06/11 07:34:42;;;;;;;;;3.00;3.00;;;;;23.02;51.15;102017.44;5031214;28;45567;-84
2022/06/11 07:37:08;;;;;;;;;3.25;2.00;;;;;23.04;51.72;102022.75;5035884;28;45490;-92
2022/06/11 07:39:34;;;;;;;;;1.00;1.00;;;;;23.18;50.96;102028.88;5041255;28;45513;-84
2022/06/11 07:41:59;;;;;;;;;2.00;2.00;;;;;23.24;50.68;102030.25;5044023;28;46499;-84
2022/06/11 07:44:25;;;;;;;;;1.00;1.00;;;;;23.01;50.49;101979.47;5043905;28;45489;-83
2022/06/11 07:46:50;;;;;;;;;1.00;0.50;;;;;23.28;50.33;102014.56;5043529;28;45743;-86
2022/06/11 07:49:15;;;;;;;;;1.00;1.00;;;;;23.32;50.24;102013.31;5047337;28;47463;-83
2022/06/11 07:51:41;;;;;;;;;1.00;1.00;;;;;23.33;49.90;102010.50;5041814;28;45489;-84
2022/06/11 07:54:06;;;;;;;;;2.00;1.00;;;;;23.51;49.85;102027.25;5046642;28;45627;-85
2022/06/11 07:56:32;;;;;;;;;2.00;2.00;;;;;23.53;50.06;102011.66;5042355;28;45588;-86
2022/06/11 07:58:57;;;;;;;;;2.25;0.50;;;;;23.60;49.27;102018.38;5044587;28;47337;-84
2022/06/11 08:01:23;;;;;;;;;0.50;0.50;;;;;23.53;49.64;101997.16;5039541;28;45471;-84
2022/06/11 08:03:48;;;;;;;;;1.00;1.00;;;;;23.63;49.81;102022.69;5040474;28;45456;-85
2022/06/11 08:06:14;;;;;;;;;1.00;1.00;;;;;23.54;49.29;101993.47;5042685;28;45462;-84
2022/06/11 08:08:39;;;;;;;;;1.25;1.00;;;;;23.56;50.29;101997.81;5035726;28;47172;-84
2022/06/11 08:11:06;;;;;;;;;1.00;1.00;;;;;23.73;49.70;102014.66;5039485;28;45437;-84
2022/06/11 08:13:32;;;;;;;;;1.67;1.67;;;;;23.66;49.28;101997.09;5035505;28;45443;-84
2022/06/11 08:15:59;;;;;;;;;1.00;1.00;;;;;23.75;49.85;102015.44;5042730;28;45804;-84
2022/06/11 08:18:26;;;;;;;;;1.67;1.67;;;;;23.88;50.67;102026.22;5039666;28;46388;-83
2022/06/11 08:20:52;;;;;;;;;2.33;2.00;;;;;23.95;50.34;102019.28;5036481;28;45447;-83
2022/06/11 08:23:18;;;;;;;;;4.00;2.00;;;;;24.02;49.86;102018.69;5044570;28;45525;-85
2022/06/11 08:25:44;;;;;;;;;1.00;1.00;;;;;23.94;49.70;101993.06;5049646;28;45633;-88
2022/06/11 08:28:12;;;;;;;;;2.00;2.00;;;;;24.17;48.82;102013.84;5037108;28;45678;-84
2022/06/11 08:30:37;;;;;;;;;2.00;2.00;;;;;24.49;48.21;101985.84;5036860;28;45375;-83
2022/06/11 08:33:03;;;;;;;;;3.67;2.33;;;;;25.17;46.86;102012.84;5040327;28;45550;-84
2022/06/11 08:35:32;;;;;;;;;3.00;3.00;;;;;25.08;48.15;102008.22;5037019;28;45615;-84
2022/06/11 08:37:57;;;;;;;;;3.75;3.00;;;;;25.01;48.35;102013.31;5036274;28;46667;-85
2022/06/11 08:40:34;;;;;;;;;3.25;2.50;;;;;25.35;47.22;102015.91;5044735;28;45463;-82
2022/06/11 08:43:11;;;;;;;;;2.75;2.75;;;;;25.68;46.83;102006.63;5046064;28;45502;-82
2022/06/11 08:45:45;;;;;;;;;2.75;2.75;;;;;26.00;45.70;102014.75;5042321;28;45708;-86
2022/06/11 08:48:36;;;;;;;;;2.75;2.75;;;;;26.37;45.93;102005.97;5041692;28;45960;-84
2022/06/11 08:51:07;;;;;;;;;3.50;2.50;;;;;26.44;45.02;102009.00;5042421;28;45482;-84
2022/06/11 08:53:37;;;;;;;;;2.00;2.00;;;;;26.53;44.51;102005.44;5042062;28;45474;-89
2022/06/11 08:56:04;;;;;;;;;1.50;1.50;;;;;26.57;44.49;101990.50;5039147;28;45517;-88
2022/06/11 08:58:52;;;;;;;;;2.00;2.00;;;;;26.87;45.56;102000.47;5044405;28;47004;-87
2022/06/11 09:01:35;;;;;;;;;3.00;1.00;;;;;27.14;44.59;101997.00;5046642;28;45519;-88
2022/06/11 09:04:26;;;;;;;;;2.00;2.00;;;;;27.26;43.34;101986.81;5045451;28;45630;-88
2022/06/11 09:07:12;;;;;;;;;5.00;4.00;;;;;27.12;43.87;101966.19;5042450;28;45507;-88
2022/06/11 09:09:48;;;;;;;;;3.00;1.00;;;;;27.32;44.34;101988.09;5035797;28;47806;-88
2022/06/11 09:12:19;;;;;;;;;2.25;2.25;;;;;27.38;42.90;101987.50;5040854;28;45793;-85
2022/06/11 09:14:53;;;;;;;;;4.25;2.00;;;;;27.38;43.35;101987.50;5038717;28;45378;-83
2022/06/11 09:17:24;;;;;;;;;3.25;2.00;;;;;27.39;43.02;101991.09;5044751;28;45544;-86
2022/06/11 09:20:27;;;;;;;;;2.00;2.00;;;;;27.36;43.38;101984.91;5042507;28;46195;-85
2022/06/11 09:22:55;;;;;;;;;1.50;1.25;;;;;27.41;42.76;101995.41;5030728;28;45563;-87
2022/06/11 09:25:35;;;;;;;;;2.00;2.00;;;;;27.52;43.42;101977.97;5035461;28;45465;-87
2022/06/11 09:28:25;;;;;;;;;2.00;2.00;;;;;27.81;43.01;101974.28;5036383;28;45388;-86
2022/06/11 09:31:02;;;;;;;;;4.50;3.00;;;;;28.18;42.04;101955.94;5031641;28;46416;-84
2022/06/11 09:33:56;;;;;;;;;2.25;2.25;;;;;28.98;41.50;101989.03;5033321;28;45572;-86
2022/06/11 09:36:29;;;;;;;;;4.75;3.00;;;;;29.23;40.59;101929.72;5027967;28;47868;-88
2022/06/11 09:39:25;;;;;;;;;3.00;3.00;;;;;29.89;40.13;101976.88;5033629;28;45460;-88
2022/06/11 09:42:10;;;;;;;;;1.75;1.75;;;;;30.39;39.42;101980.72;5029305;28;48442;-95
2022/06/11 09:45:03;;;;;;;;;3.50;3.50;;;;;31.07;38.12;101987.91;5039034;28;46133;-87
2022/06/11 09:47:45;;;;;;;;;4.00;3.00;;;;;31.80;37.56;101970.44;5034845;28;45452;-89
2022/06/11 09:50:22;;;;;;;;;1.00;1.00;;;;;32.40;36.10;101938.63;5034682;28;45415;-91
2022/06/11 09:53:11;;;;;;;;;3.50;3.25;;;;;32.99;35.44;101972.06;5034664;28;45761;-88
2022/06/11 09:55:52;;;;;;;;;3.00;3.00;;;;;33.60;34.78;101954.63;5035147;28;45423;-90
2022/06/11 09:59:02;;;;;;;;;2.00;1.75;;;;;34.28;33.71;101937.84;5036707;28;45395;-90
2022/06/11 10:01:34;;;;;;;;;2.75;1.25;;;;;34.61;31.33;101977.03;5021598;28;45795;-89
2022/06/11 10:04:09;;;;;;;;;2.25;2.25;;;;;34.09;31.65;101965.13;5006259;28;45537;-93
2022/06/11 10:07:11;;;;;;;;;1.75;1.75;;;;;33.97;32.38;101978.53;5004357;28;45558;-93
2022/06/11 10:09:43;;;;;;;;;3.50;2.50;;;;;33.41;32.44;101978.09;4948911;28;45584;-90
2022/06/11 10:12:17;;;;;;;;;2.00;2.00;;;;;32.90;33.22;101984.22;4947129;28;45581;-90
2022/06/11 10:14:59;;;;;;;;;3.00;2.00;;;;;32.29;33.52;101984.06;4948033;28;46277;-88
2022/06/11 10:17:36;;;;;;;;;2.00;2.00;;;;;31.74;34.45;101983.03;4947012;28;45703;-86
2022/06/11 10:20:14;;;;;;;;;3.75;2.00;;;;;31.45;34.32;101988.28;4946882;28;45555;-86
2022/06/11 10:22:55;;;;;;;;;1.67;1.67;;;;;31.22;35.18;101983.44;4948302;28;45349;-88
2022/06/11 10:25:39;;;;;;;;;2.00;2.00;;;;;31.06;34.79;101988.94;4943286;28;46442;-87
2022/06/11 10:28:31;;;;;;;;;3.33;2.00;;;;;30.91;35.25;101986.88;4948621;28;45530;-86
2022/06/11 10:31:06;;;;;;;;;3.00;3.00;;;;;31.07;35.07;101987.91;4944646;28;45509;-85
2022/06/11 10:33:40;;;;;;;;;2.00;2.00;;;;;31.30;35.33;101974.28;4947479;28;45312;-85
2022/06/11 10:36:13;;;;;;;;;4.00;2.00;;;;;31.82;34.13;101973.00;4948036;28;45398;-93
2022/06/11 10:39:07;;;;;;;;;3.25;2.50;;;;;31.98;34.82;101953.66;4955596;28;45556;-94
2022/06/11 10:41:39;;;;;;;;;3.00;3.00;;;;;32.21;33.24;101977.72;4956232;28;45585;-96
2022/06/11 10:44:18;;;;;;;;;2.00;2.00;;;;;32.30;33.47;101974.72;4951920;28;45584;-86
2022/06/11 10:46:45;;;;;;;;;2.00;1.75;;;;;32.45;33.54;101979.47;5004288;28;46231;-87
2022/06/11 10:49:14;;;;;;;;;0.75;0.00;;;;;32.72;33.19;101975.38;5012320;28;45338;-86
2022/06/11 10:51:44;;;;;;;;;1.25;1.00;;;;;33.06;31.78;101972.22;4997998;28;45466;-85
2022/06/11 10:54:18;;;;;;;;;2.75;2.50;;;;;33.42;32.44;101969.63;5002467;28;45529;-85
2022/06/11 10:56:51;;;;;;;;;2.67;2.67;;;;;33.18;32.01;101901.63;4995448;28;46079;-86
2022/06/11 10:59:32;;;;;;;;;3.33;3.33;;;;;33.08;31.87;101891.88;4994180;28;45652;-84
2022/06/11 11:02:18;;;;;;;;;2.00;2.00;;;;;33.61;31.32;101973.75;4980813;28;45496;-86
2022/06/11 11:05:09;;;;;;;;;1.33;1.33;;;;;33.59;30.54;101947.34;4996150;28;45858;-84
2022/06/11 11:08:01;;;;;;;;;1.00;1.00;;;;;33.47;30.69;101965.44;5004906;28;46175;-83
2022/06/11 11:10:35;;;;;;;;;1.25;1.25;;;;;33.45;30.75;101967.53;4994272;28;45466;-84
2022/06/11 11:13:05;;;;;;;;;1.00;1.00;;;;;33.31;31.18;101956.25;5000056;28;45463;-85
2022/06/11 11:15:40;;;;;;;;;0.00;0.00;;;;;33.37;30.50;101965.72;4999750;28;45781;-83
2022/06/11 11:18:20;;;;;;;;;1.50;1.00;;;;;33.51;30.19;101969.53;5003998;28;45499;-84
2022/06/11 11:20:49;;;;;;;;;0.75;0.75;;;;;33.48;30.21;101970.75;4994700;28;45528;-85
2022/06/11 11:23:22;;;;;;;;;0.75;0.75;;;;;33.45;30.27;101962.84;4994671;28;45507;-83
2022/06/11 11:25:53;;;;;;;;;1.00;1.00;;;;;33.55;30.66;101971.75;4999985;28;45368;-83
2022/06/11 11:28:29;;;;;;;;;2.00;0.75;;;;;33.43;30.17;101952.00;5007748;28;45647;-83
2022/06/11 11:30:59;;;;;;;;;0.75;0.75;;;;;33.43;30.45;101962.16;5037194;28;45493;-83
2022/06/11 11:33:29;;;;;;;;;1.25;1.25;;;;;33.45;30.09;101956.47;5041023;28;45489;-81
2022/06/11 11:36:22;;;;;;;;;1.25;1.25;;;;;33.34;30.53;101944.84;5035557;28;45626;-81
2022/06/11 11:39:13;;;;;;;;;1.00;0.67;;;;;33.39;30.84;101956.19;5021312;28;46414;-83
2022/06/11 11:41:52;;;;;;;;;1.33;1.33;;;;;33.39;31.02;101961.72;5024768;28;45394;-82
2022/06/11 11:44:23;;;;;;;;;1.25;1.25;;;;;33.37;30.96;101961.03;5044620;28;45837;-82
2022/06/11 11:46:58;;;;;;;;;1.00;0.75;;;;;33.35;30.51;101959.50;5038120;28;45549;-85
2022/06/11 11:49:31;;;;;;;;;2.00;1.00;;;;;33.27;30.30;101951.28;5036739;28;46419;-85